createdAt,value
2022-08-09T00:02:07.874Z,57.00
2022-08-09T00:04:41.387Z,57.05
2022-08-09T00:07:21.490Z,57.17
2022-08-09T00:09:58.571Z,57.09
2022-08-09T00:12:29.830Z,57.01
2022-08-09T00:15:06.651Z,57.00
2022-08-09T00:18:04.418Z,57.03
2022-08-09T00:20:25.016Z,56.87
2022-08-09T00:22:54.127Z,56.77
2022-08-09T00:25:32.056Z,56.64
2022-08-09T00:28:04.059Z,56.71
2022-08-09T00:30:36.452Z,56.72
2022-08-09T00:33:05.740Z,56.69
2022-08-09T00:35:42.868Z,56.87
2022-08-09T00:38:13.844Z,57.12
2022-08-09T00:40:53.230Z,57.12
2022-08-09T00:44:10.644Z,57.11
2022-08-09T00:46:14.524Z,57.32
2022-08-09T00:49:00.362Z,57.47
2022-08-09T00:51:33.918Z,57.41
2022-08-09T00:54:05.988Z,57.26
2022-08-09T00:56:34.948Z,57.29
2022-08-09T00:59:04.488Z,57.05
2022-08-09T01:01:44.543Z,56.56
2022-08-09T01:04:38.410Z,56.40
2022-08-09T01:08:00.384Z,56.37
2022-08-09T01:11:09.875Z,56.64
2022-08-09T01:14:36.643Z,56.95
2022-08-09T01:17:30.440Z,57.31
2022-08-09T01:20:36.160Z,57.67
2022-08-09T01:24:02.837Z,57.87
2022-08-09T01:27:10.554Z,58.10
2022-08-09T01:30:00.678Z,58.04
2022-08-09T01:32:45.319Z,58.07
2022-08-09T01:35:37.862Z,57.87
2022-08-09T01:38:16.669Z,57.81
2022-08-09T01:41:04.817Z,57.90
2022-08-09T01:43:50.291Z,57.90
2022-08-09T01:46:30.153Z,57.99
2022-08-09T01:49:14.868Z,58.03
2022-08-09T01:52:07.847Z,58.01
2022-08-09T01:54:56.986Z,58.00
2022-08-09T01:57:45.765Z,57.98
2022-08-09T02:00:34.641Z,58.09
2022-08-09T02:03:07.379Z,57.99
2022-08-09T02:06:03.419Z,58.12
2022-08-09T02:08:59.007Z,58.42
2022-08-09T02:11:42.579Z,58.74
2022-08-09T02:14:26.375Z,58.72
2022-08-09T02:17:14.953Z,58.93
2022-08-09T02:19:47.606Z,59.01
2022-08-09T02:22:40.144Z,58.98
2022-08-09T02:25:33.265Z,58.90
2022-08-09T02:28:43.034Z,58.98
2022-08-09T02:31:20.439Z,59.06
2022-08-09T02:34:06.335Z,59.19
2022-08-09T02:36:43.507Z,59.31
2022-08-09T02:39:33.411Z,59.33
2022-08-09T02:42:17.315Z,59.30
2022-08-09T02:44:56.304Z,59.49
2022-08-09T02:47:33.957Z,59.62
2022-08-09T02:50:55.746Z,59.68
2022-08-09T02:53:29.755Z,59.85
2022-08-09T02:56:02.433Z,60.00
2022-08-09T02:58:36.849Z,60.19
2022-08-09T03:01:10.668Z,60.44
2022-08-09T03:04:17.563Z,60.56
2022-08-09T03:06:36.705Z,60.53
2022-08-09T03:09:07.983Z,60.58
2022-08-09T03:12:10.443Z,60.49
2022-08-09T03:14:32.259Z,60.58
2022-08-09T03:17:02.452Z,60.47
2022-08-09T03:19:52.039Z,60.50
2022-08-09T03:22:30.455Z,60.59
2022-08-09T03:25:06.255Z,60.52
2022-08-09T03:27:55.333Z,60.64
2022-08-09T03:30:30.069Z,60.70
2022-08-09T03:33:17.565Z,60.31
2022-08-09T03:36:12.523Z,60.43
2022-08-09T03:38:44.711Z,60.68
2022-08-09T03:41:18.236Z,60.87
2022-08-09T03:44:03.384Z,60.96
2022-08-09T03:46:37.325Z,61.01
2022-08-09T03:49:09.765Z,61.21
2022-08-09T03:51:58.340Z,61.41
2022-08-09T03:54:38.916Z,61.37
2022-08-09T03:57:18.595Z,61.56
2022-08-09T03:59:56.085Z,61.75
2022-08-09T04:02:32.486Z,61.75
2022-08-09T04:05:06.584Z,61.83
2022-08-09T04:07:56.652Z,62.01
2022-08-09T04:10:29.419Z,62.03
2022-08-09T04:13:04.160Z,62.05
2022-08-09T04:16:17.173Z,62.09
2022-08-09T04:18:25.282Z,62.32
2022-08-09T04:20:54.568Z,62.31
2022-08-09T04:23:38.449Z,62.14
2022-08-09T04:26:10.436Z,61.92
2022-08-09T04:28:51.319Z,61.65
2022-08-09T04:31:22.924Z,61.38
2022-08-09T04:34:13.056Z,61.20
2022-08-09T04:36:54.423Z,61.07
2022-08-09T04:39:42.337Z,60.78
2022-08-09T04:42:30.221Z,60.53
2022-08-09T04:45:08.711Z,60.47
2022-08-09T04:48:00.893Z,60.44
2022-08-09T04:50:37.912Z,60.35
2022-08-09T04:53:13.788Z,60.43
2022-08-09T04:55:57.989Z,60.60
2022-08-09T04:58:32.777Z,60.40
2022-08-09T05:01:19.956Z,60.48
2022-08-09T05:03:58.469Z,60.50
2022-08-09T05:06:29.798Z,60.68
2022-08-09T05:09:11.643Z,60.64
2022-08-09T05:11:43.505Z,60.52
2022-08-09T05:14:15.528Z,60.53
2022-08-09T05:16:58.903Z,60.45
2022-08-09T05:19:31.908Z,60.40
2022-08-09T05:22:35.720Z,60.59
2022-08-09T05:25:05.204Z,60.33
2022-08-09T05:27:34.254Z,60.15
2022-08-09T05:30:14.344Z,60.12
2022-08-09T05:32:50.847Z,60.00
2022-08-09T05:35:28.197Z,59.84
2022-08-09T05:38:11.660Z,59.71
2022-08-09T05:40:55.533Z,59.74
2022-08-09T05:43:29.042Z,59.87
2022-08-09T05:46:05.915Z,59.81
2022-08-09T05:48:35.102Z,59.74
2022-08-09T05:51:30.364Z,59.69
2022-08-09T05:53:58.020Z,59.55
2022-08-09T05:56:28.771Z,59.54
2022-08-09T05:58:58.981Z,59.38
2022-08-09T06:01:33.679Z,58.99
2022-08-09T06:04:06.175Z,59.07
2022-08-09T06:06:35.440Z,59.08
2022-08-09T06:09:05.480Z,58.47
2022-08-09T06:11:40.644Z,58.22
2022-08-09T06:14:27.480Z,58.10
2022-08-09T06:16:57.692Z,58.07
2022-08-09T06:19:27.486Z,57.93
2022-08-09T06:21:58.655Z,57.85
2022-08-09T06:24:28.425Z,57.84
2022-08-09T06:26:58.120Z,57.84
2022-08-09T06:29:27.223Z,57.73
2022-08-09T06:32:08.618Z,57.70
2022-08-09T06:34:38.378Z,57.25
2022-08-09T06:37:09.955Z,57.10
2022-08-09T06:39:58.094Z,57.05
2022-08-09T06:42:30.913Z,56.92
2022-08-09T06:45:04.591Z,57.00
2022-08-09T06:48:00.894Z,57.11
2022-08-09T06:50:32.029Z,57.27
2022-08-09T06:53:01.752Z,57.40
2022-08-09T06:55:33.412Z,57.39
2022-08-09T06:58:04.633Z,57.47
2022-08-09T07:00:55.187Z,57.46
2022-08-09T07:03:27.979Z,57.28
2022-08-09T07:06:04.249Z,57.00
2022-08-09T07:08:37.278Z,57.02
2022-08-09T07:11:17.710Z,57.05
2022-08-09T07:14:04.861Z,57.23
2022-08-09T07:16:41.232Z,57.10
2022-08-09T07:19:23.183Z,57.34
2022-08-09T07:21:57.200Z,57.57
2022-08-09T07:24:40.124Z,57.43
2022-08-09T07:27:27.428Z,57.44
2022-08-09T07:30:02.522Z,57.21
2022-08-09T07:32:34.297Z,57.20
2022-08-09T07:35:11.783Z,57.04
2022-08-09T07:37:45.824Z,56.97
2022-08-09T07:40:25.152Z,56.69
2022-08-09T07:43:00.006Z,56.84
2022-08-09T07:45:37.412Z,57.02
2022-08-09T07:48:25.288Z,56.40
2022-08-09T07:51:09.687Z,55.95
2022-08-09T07:54:05.721Z,55.78
2022-08-09T07:56:50.029Z,55.26
2022-08-09T07:59:34.714Z,55.12
2022-08-09T08:02:11.468Z,54.76
2022-08-09T08:04:53.759Z,54.79
2022-08-09T08:08:43.540Z,55.06
2022-08-09T08:10:12.420Z,54.84
2022-08-09T08:12:46.764Z,54.68
2022-08-09T08:15:23.053Z,54.12
2022-08-09T08:17:58.649Z,54.19
2022-08-09T08:20:32.981Z,54.30
2022-08-09T08:23:17.462Z,53.94
2022-08-09T08:26:06.401Z,53.83
2022-08-09T08:28:48.057Z,53.99
2022-08-09T08:31:24.601Z,53.57
2022-08-09T08:34:20.954Z,53.34
2022-08-09T08:37:01.196Z,53.01
2022-08-09T08:39:43.338Z,52.26
2022-08-09T08:42:14.257Z,51.57
2022-08-09T08:45:11.719Z,50.98
2022-08-09T08:47:46.404Z,50.72
2022-08-09T08:50:18.115Z,50.72
2022-08-09T08:52:58.497Z,49.67
2022-08-09T08:55:32.266Z,48.26
2022-08-09T08:58:02.947Z,47.11
2022-08-09T09:00:34.191Z,47.30
2022-08-09T09:03:08.773Z,47.13
2022-08-09T09:05:59.695Z,45.99
2022-08-09T09:08:42.244Z,44.78
2022-08-09T09:11:17.421Z,44.21
2022-08-09T09:13:56.810Z,43.77
2022-08-09T09:16:35.787Z,42.80
2022-08-09T09:22:15.842Z,42.31
2022-08-09T09:26:01.134Z,42.28
2022-08-09T09:28:03.781Z,41.99
2022-08-09T09:30:58.963Z,41.61
2022-08-09T09:33:44.845Z,40.85
2022-08-09T09:36:21.010Z,40.62
2022-08-09T09:38:57.417Z,39.41
2022-08-09T09:41:48.885Z,39.08
2022-08-09T09:44:34.643Z,38.79
2022-08-09T09:47:21.602Z,38.47
2022-08-09T09:50:14.387Z,38.65
2022-08-09T09:52:56.056Z,38.37
2022-08-09T09:55:32.281Z,37.89
2022-08-09T09:58:18.932Z,38.34
2022-08-09T10:01:01.584Z,37.76
2022-08-09T10:03:57.216Z,36.89
2022-08-09T10:06:46.883Z,36.69
2022-08-09T10:09:23.343Z,36.42
2022-08-09T10:12:11.859Z,36.39
2022-08-09T10:14:49.999Z,36.22
2022-08-09T10:17:54.875Z,35.66
2022-08-09T10:20:32.503Z,34.34
2022-08-09T10:23:22.191Z,34.81
2022-08-09T10:26:07.071Z,34.37
2022-08-09T10:28:48.711Z,33.89
2022-08-09T10:34:32.638Z,32.00
2022-08-09T10:37:02.661Z,31.56
2022-08-09T10:39:40.520Z,31.26
2022-08-09T10:42:26.981Z,31.61
2022-08-09T10:45:02.551Z,32.20
2022-08-09T10:48:30.407Z,33.14
2022-08-09T10:51:40.972Z,34.20
2022-08-09T10:54:13.931Z,34.24
2022-08-09T10:56:47.057Z,34.25
2022-08-09T10:59:31.174Z,34.51
2022-08-09T11:03:27.527Z,34.07
2022-08-09T11:05:30.212Z,33.90
2022-08-09T11:08:47.314Z,34.51
2022-08-09T11:11:19.446Z,35.10
2022-08-09T11:14:31.912Z,35.27
2022-08-09T11:17:31.078Z,35.42
2022-08-09T11:20:22.228Z,35.43
2022-08-09T11:22:56.774Z,35.46
2022-08-09T11:25:54.956Z,35.48
2022-08-09T11:28:56.031Z,36.06
2022-08-09T11:31:53.108Z,36.11
2022-08-09T11:34:52.895Z,36.56
2022-08-09T11:37:31.326Z,37.15
2022-08-09T11:40:32.583Z,37.47
2022-08-09T11:43:07.644Z,38.21
2022-08-09T11:46:12.936Z,38.93
2022-08-09T11:49:01.061Z,39.06
2022-08-09T11:52:57.122Z,39.54
2022-08-09T11:55:52.312Z,40.76
2022-08-09T11:58:30.467Z,40.96
2022-08-09T12:01:15.405Z,40.97
2022-08-09T12:04:20.883Z,40.65
2022-08-09T12:07:00.521Z,40.79
2022-08-09T12:09:34.635Z,41.27
2022-08-09T12:12:29.244Z,41.41
2022-08-09T12:15:49.083Z,41.53
2022-08-09T12:18:26.227Z,41.68
2022-08-09T12:21:04.496Z,41.49
2022-08-09T12:24:06.687Z,41.61
2022-08-09T12:29:00.060Z,42.12
2022-08-09T12:29:44.726Z,42.38
2022-08-09T12:32:27.664Z,42.13
2022-08-09T12:35:05.406Z,42.12
2022-08-09T12:37:51.675Z,41.88
2022-08-09T12:40:27.176Z,42.08
2022-08-09T12:43:10.623Z,42.56
2022-08-09T12:46:00.227Z,42.92
2022-08-09T12:48:38.369Z,42.98
2022-08-09T12:51:08.015Z,43.03
2022-08-09T12:53:52.735Z,42.65
2022-08-09T12:56:39.330Z,42.45
2022-08-09T12:59:15.776Z,42.49
2022-08-09T13:02:07.052Z,42.60
2022-08-09T13:04:41.501Z,42.39
2022-08-09T13:07:28.681Z,42.66
2022-08-09T13:10:10.034Z,42.79
2022-08-09T13:13:10.259Z,42.68
2022-08-09T13:16:19.003Z,42.62
2022-08-09T13:18:56.116Z,42.53
2022-08-09T13:22:36.782Z,42.17
2022-08-09T13:24:52.776Z,41.88
2022-08-09T13:27:39.481Z,41.37
2022-08-09T13:30:49.976Z,40.96
2022-08-09T13:33:12.030Z,40.74
2022-08-09T13:36:38.768Z,40.63
2022-08-09T13:38:55.439Z,40.52
2022-08-09T13:41:58.642Z,40.42
2022-08-09T13:44:19.576Z,40.62
2022-08-09T13:47:28.963Z,40.25
2022-08-09T13:49:55.945Z,39.70
2022-08-09T13:52:27.871Z,39.37
2022-08-09T13:55:04.370Z,39.07
2022-08-09T13:57:56.236Z,38.51
2022-08-09T14:00:30.591Z,37.87
2022-08-09T14:04:03.767Z,37.00
2022-08-09T14:06:40.886Z,36.25
2022-08-09T14:09:19.831Z,36.05
2022-08-09T14:11:50.972Z,35.85
2022-08-09T14:14:25.818Z,35.44
2022-08-09T14:16:58.650Z,35.48
2022-08-09T14:19:33.126Z,35.71
2022-08-09T14:22:05.069Z,36.00
2022-08-09T14:24:34.289Z,36.06
2022-08-09T14:27:20.012Z,35.72
2022-08-09T14:30:22.039Z,35.70
2022-08-09T14:32:41.651Z,35.96
2022-08-09T14:35:12.208Z,35.86
2022-08-09T14:38:01.997Z,35.74
2022-08-09T14:41:01.475Z,36.32
2022-08-09T14:43:19.871Z,36.97
2022-08-09T14:46:57.104Z,37.22
2022-08-09T14:48:40.490Z,37.42
2022-08-09T14:51:12.131Z,37.60
2022-08-09T14:53:48.710Z,37.52
2022-08-09T14:56:26.828Z,37.37
2022-08-09T14:58:56.480Z,37.50
2022-08-09T15:01:29.706Z,37.48
2022-08-09T15:04:04.265Z,37.65
2022-08-09T15:06:40.315Z,38.09
2022-08-09T15:09:11.742Z,38.25
2022-08-09T15:11:48.799Z,38.66
2022-08-09T15:14:20.375Z,38.99
2022-08-09T15:16:53.118Z,39.40
2022-08-09T15:19:26.200Z,39.59
2022-08-09T15:22:02.378Z,39.81
2022-08-09T15:24:31.945Z,40.10
2022-08-09T15:27:04.038Z,40.29
2022-08-09T15:30:59.132Z,40.55
2022-08-09T15:32:28.928Z,40.46
2022-08-09T15:35:01.878Z,40.20
2022-08-09T15:37:56.331Z,40.12
2022-08-09T15:40:43.643Z,40.22
2022-08-09T15:43:14.834Z,40.55
2022-08-09T15:46:08.062Z,40.84
2022-08-09T15:49:22.681Z,41.06
2022-08-09T15:52:02.702Z,40.83
2022-08-09T15:54:38.260Z,40.80
2022-08-09T15:57:15.036Z,40.87
2022-08-09T15:59:54.178Z,40.70
2022-08-09T16:02:27.061Z,40.76
2022-08-09T16:04:56.729Z,41.05
2022-08-09T16:07:26.899Z,41.21
2022-08-09T16:10:02.266Z,41.59
2022-08-09T16:12:37.417Z,41.93
2022-08-09T16:16:11.421Z,42.06
2022-08-09T16:18:13.905Z,42.24
2022-08-09T16:20:43.334Z,42.54
2022-08-09T16:23:20.036Z,42.62
2022-08-09T16:25:51.919Z,42.68
2022-08-09T16:28:30.201Z,42.66
2022-08-09T16:31:01.374Z,42.98
2022-08-09T16:33:35.859Z,43.14
2022-08-09T16:36:16.294Z,43.12
2022-08-09T16:38:51.700Z,43.17
2022-08-09T16:41:25.146Z,43.15
2022-08-09T16:44:13.846Z,43.39
2022-08-09T16:46:55.069Z,43.61
2022-08-09T16:50:31.721Z,43.86
2022-08-09T16:52:19.221Z,44.11
2022-08-09T16:54:48.481Z,44.46
2022-08-09T16:57:19.443Z,44.71
2022-08-09T16:59:50.292Z,44.93
2022-08-09T17:02:31.558Z,44.98
2022-08-09T17:05:01.432Z,44.91
2022-08-09T17:08:43.017Z,44.98
2022-08-09T17:10:22.179Z,44.90
2022-08-09T17:12:51.137Z,44.82
2022-08-09T17:15:31.408Z,44.89
2022-08-09T17:18:10.835Z,45.05
2022-08-09T17:20:52.351Z,45.13
2022-08-09T17:23:22.127Z,45.27
2022-08-09T17:26:06.441Z,45.30
2022-08-09T17:28:36.704Z,45.49
2022-08-09T17:31:06.263Z,45.62
2022-08-09T17:33:38.289Z,45.74
2022-08-09T17:36:15.844Z,45.76
2022-08-09T17:38:57.702Z,46.12
2022-08-09T17:41:38.439Z,46.38
2022-08-09T17:44:39.042Z,46.48
2022-08-09T17:46:58.706Z,46.60
2022-08-09T17:49:28.001Z,46.90
2022-08-09T17:51:59.468Z,47.22
2022-08-09T17:54:29.729Z,47.32
2022-08-09T17:56:58.781Z,47.53
2022-08-09T17:59:37.982Z,47.64
2022-08-09T18:02:14.782Z,47.69
2022-08-09T18:04:54.665Z,48.03
2022-08-09T18:07:23.922Z,48.23
2022-08-09T18:10:04.448Z,48.37
2022-08-09T18:12:40.907Z,48.49
2022-08-09T18:16:05.056Z,48.75
2022-08-09T18:18:26.190Z,49.07
2022-08-09T18:21:19.171Z,49.23
2022-08-09T18:24:12.214Z,49.34
2022-08-09T18:26:46.664Z,49.65
2022-08-09T18:30:38.509Z,49.90
2022-08-09T18:32:07.586Z,50.04
2022-08-09T18:34:39.597Z,50.19
2022-08-09T18:37:10.491Z,50.42
2022-08-09T18:39:58.795Z,50.61
2022-08-09T18:42:29.184Z,50.84
2022-08-09T18:45:00.865Z,51.03
2022-08-09T18:47:37.187Z,51.23
2022-08-09T18:50:10.067Z,51.46
2022-08-09T18:52:45.247Z,51.58
2022-08-09T18:55:45.794Z,51.74
2022-08-09T18:58:09.248Z,51.87
2022-08-09T19:00:41.665Z,52.18
2022-08-09T19:03:15.060Z,52.22
2022-08-09T19:06:03.074Z,52.45
2022-08-09T19:08:34.078Z,52.48
2022-08-09T19:11:22.842Z,52.57
2022-08-09T19:14:06.134Z,52.83
2022-08-09T19:16:38.059Z,52.79
2022-08-09T19:19:26.211Z,52.69
2022-08-09T19:22:04.693Z,52.67
2022-08-09T19:25:12.083Z,52.87
2022-08-09T19:27:34.929Z,53.30
2022-08-09T19:30:24.637Z,53.59
2022-08-09T19:32:55.563Z,53.85
2022-08-09T19:35:26.709Z,53.90
2022-08-09T19:37:57.662Z,54.06
2022-08-09T19:40:33.433Z,54.25
2022-08-09T19:43:10.265Z,54.49
2022-08-09T19:45:45.697Z,54.24
2022-08-09T19:48:16.333Z,54.27
2022-08-09T19:51:05.770Z,54.44
2022-08-09T19:53:45.256Z,54.51
2022-08-09T19:56:16.589Z,54.64
2022-08-09T19:59:39.326Z,54.64
2022-08-09T20:02:07.437Z,54.60
2022-08-09T20:04:47.864Z,54.68
2022-08-09T20:07:25.269Z,54.67
2022-08-09T20:10:06.718Z,54.82
2022-08-09T20:12:46.649Z,54.95
2022-08-09T20:16:35.698Z,55.13
2022-08-09T20:18:08.332Z,55.38
2022-08-09T20:20:38.647Z,55.55
2022-08-09T20:23:07.797Z,55.94
2022-08-09T20:25:49.610Z,56.17
2022-08-09T20:28:24.289Z,56.50
2022-08-09T20:31:04.871Z,56.80
2022-08-09T20:33:39.020Z,57.06
2022-08-09T20:36:10.861Z,57.22
2022-08-09T20:39:18.901Z,57.35
2022-08-09T20:41:35.003Z,57.75
2022-08-09T20:44:10.408Z,58.26
2022-08-09T20:46:43.219Z,58.40
2022-08-09T20:49:16.148Z,58.78
2022-08-09T20:51:50.475Z,58.84
2022-08-09T20:54:22.556Z,59.13
2022-08-09T20:56:54.190Z,59.33
2022-08-09T21:00:19.157Z,59.50
2022-08-09T21:02:18.534Z,59.52
2022-08-09T21:05:56.732Z,59.50
2022-08-09T21:07:44.270Z,59.51
2022-08-09T21:10:13.326Z,59.54
2022-08-09T21:15:34.755Z,59.78
2022-08-09T21:18:21.374Z,59.82
2022-08-09T21:20:56.349Z,59.99
2022-08-09T21:23:47.835Z,60.11
2022-08-09T21:26:17.738Z,60.22
2022-08-09T21:28:55.969Z,60.31
2022-08-09T21:31:48.141Z,60.28
2022-08-09T21:34:29.190Z,60.38
2022-08-09T21:37:00.980Z,60.14
2022-08-09T21:39:41.635Z,60.36
2022-08-09T21:42:11.847Z,60.54
2022-08-09T21:44:45.097Z,60.68
2022-08-09T21:47:18.430Z,60.81
2022-08-09T21:49:50.877Z,61.02
2022-08-09T21:52:21.646Z,61.29
2022-08-09T21:55:03.884Z,61.65
2022-08-09T21:57:58.897Z,61.72
2022-08-09T22:00:38.814Z,62.09
2022-08-09T22:03:19.255Z,62.08
2022-08-09T22:05:57.982Z,62.19
2022-08-09T22:08:27.427Z,62.25
2022-08-09T22:11:50.317Z,62.36
2022-08-09T22:13:45.805Z,62.37
2022-08-09T22:16:15.015Z,62.32
2022-08-09T22:18:53.912Z,62.44
2022-08-09T22:21:50.228Z,62.62
2022-08-09T22:24:21.144Z,62.79
2022-08-09T22:26:55.109Z,62.69
2022-08-09T22:29:46.164Z,62.96
2022-08-09T22:32:29.942Z,63.02
2022-08-09T22:35:06.125Z,63.28
2022-08-09T22:37:42.073Z,63.42
2022-08-09T22:40:20.418Z,63.62
2022-08-09T22:42:49.475Z,63.50
2022-08-09T22:48:10.305Z,63.53
2022-08-09T22:48:34.959Z,63.77
2022-08-09T22:51:02.621Z,64.01
2022-08-09T22:53:58.296Z,64.17
2022-08-09T22:56:34.134Z,64.30
2022-08-09T22:59:56.182Z,64.75
2022-08-09T23:01:54.784Z,64.81
2022-08-09T23:04:25.596Z,64.85
2022-08-09T23:07:14.169Z,65.01
2022-08-09T23:09:45.276Z,65.21
2022-08-09T23:12:14.186Z,65.48
2022-08-09T23:14:46.125Z,65.42
2022-08-09T23:17:15.287Z,65.72
2022-08-09T23:20:00.534Z,65.83
2022-08-09T23:22:34.524Z,66.07
2022-08-09T23:25:08.121Z,65.99
2022-08-09T23:28:14.082Z,66.01
2022-08-09T23:30:32.268Z,66.10
2022-08-09T23:33:01.280Z,66.25
2022-08-09T23:35:30.180Z,66.49
2022-08-09T23:38:00.324Z,66.37
2022-08-09T23:40:29.319Z,66.43
2022-08-09T23:42:58.548Z,66.66
2022-08-09T23:45:37.474Z,66.81
2022-08-09T23:48:11.112Z,66.61
2022-08-09T23:50:41.209Z,66.62
2022-08-09T23:53:12.391Z,66.73
2022-08-09T23:55:45.097Z,66.82
2022-08-09T23:58:27.648Z,66.88
